Terminal Aerodrome Forecast
Issued by NWS

Home | Current Version | Previous Version | Text Only | Print | Product List | Glossary On
Versions: 1 2 3 4 5 6 7 8 9 10 11 12 13
266
FTUS46 KSGX 190520
TAFCRQ
TAF
KCRQ 190520Z 1906/2006 VRB03KT 4SM BR OVC007
     FM191700 VRB04KT P6SM SCT010
     FM191900 25008KT P6SM FEW200
     FM200100 VRB04KT P6SM SCT018
     FM200300 VRB03KT P6SM OVC018=

USA.gov is the U.S. government's official web portal to all federal, state and local government web resources and services.